sensor_id;sensor_type;location;lat;lon;timestamp;P1;durP1;ratioP1;P2;durP2;ratioP2
5345;SDS011;2695;49.444;11.054;2022-09-09T00:00:16;3.93;;;1.50;;
5345;SDS011;2695;49.444;11.054;2022-09-09T00:02:47;6.50;;;1.50;;
5345;SDS011;2695;49.444;11.054;2022-09-09T00:05:23;7.13;;;1.60;;
5345;SDS011;2695;49.444;11.054;2022-09-09T00:07:58;1.87;;;1.20;;
5345;SDS011;2695;49.444;11.054;2022-09-09T00:10:30;6.37;;;1.97;;
5345;SDS011;2695;49.444;11.054;2022-09-09T00:13:03;3.10;;;1.50;;
5345;SDS011;2695;49.444;11.054;2022-09-09T00:15:41;2.97;;;1.30;;
5345;SDS011;2695;49.444;11.054;2022-09-09T00:18:18;1.17;;;1.07;;
5345;SDS011;2695;49.444;11.054;2022-09-09T00:20:53;3.90;;;1.90;;
5345;SDS011;2695;49.444;11.054;2022-09-09T00:23:27;3.13;;;1.23;;
5345;SDS011;2695;49.444;11.054;2022-09-09T00:25:59;2.80;;;1.40;;
5345;SDS011;2695;49.444;11.054;2022-09-09T00:28:33;2.93;;;1.73;;
5345;SDS011;2695;49.444;11.054;2022-09-09T00:31:11;1.93;;;1.30;;
5345;SDS011;2695;49.444;11.054;2022-09-09T00:33:40;3.67;;;1.80;;
5345;SDS011;2695;49.444;11.054;2022-09-09T00:36:12;3.53;;;1.60;;
5345;SDS011;2695;49.444;11.054;2022-09-09T00:38:43;1.80;;;1.20;;
5345;SDS011;2695;49.444;11.054;2022-09-09T00:41:17;2.90;;;1.90;;
5345;SDS011;2695;49.444;11.054;2022-09-09T00:43:52;1.90;;;1.70;;
5345;SDS011;2695;49.444;11.054;2022-09-09T00:46:29;5.90;;;1.20;;
5345;SDS011;2695;49.444;11.054;2022-09-09T00:49:18;2.27;;;1.30;;
5345;SDS011;2695;49.444;11.054;2022-09-09T00:51:56;4.40;;;1.30;;
5345;SDS011;2695;49.444;11.054;2022-09-09T00:54:34;4.83;;;1.50;;
5345;SDS011;2695;49.444;11.054;2022-09-09T00:57:13;1.83;;;1.33;;
5345;SDS011;2695;49.444;11.054;2022-09-09T00:59:56;1.60;;;1.30;;
5345;SDS011;2695;49.444;11.054;2022-09-09T01:02:32;4.03;;;1.80;;
5345;SDS011;2695;49.444;11.054;2022-09-09T01:05:07;1.73;;;1.33;;
5345;SDS011;2695;49.444;11.054;2022-09-09T01:07:40;1.97;;;1.30;;
5345;SDS011;2695;49.444;11.054;2022-09-09T01:10:17;2.83;;;1.80;;
5345;SDS011;2695;49.444;11.054;2022-09-09T01:12:53;3.83;;;1.83;;
5345;SDS011;2695;49.444;11.054;2022-09-09T01:15:27;8.80;;;1.20;;
5345;SDS011;2695;49.444;11.054;2022-09-09T01:18:02;2.20;;;1.53;;
5345;SDS011;2695;49.444;11.054;2022-09-09T01:20:36;4.30;;;1.33;;
5345;SDS011;2695;49.444;11.054;2022-09-09T01:23:22;4.60;;;1.50;;
5345;SDS011;2695;49.444;11.054;2022-09-09T01:26:14;3.83;;;1.40;;
5345;SDS011;2695;49.444;11.054;2022-09-09T01:28:47;1.73;;;1.30;;
5345;SDS011;2695;49.444;11.054;2022-09-09T01:31:17;2.80;;;1.33;;
5345;SDS011;2695;49.444;11.054;2022-09-09T01:33:49;1.43;;;1.30;;
5345;SDS011;2695;49.444;11.054;2022-09-09T01:36:23;1.50;;;1.40;;
5345;SDS011;2695;49.444;11.054;2022-09-09T01:38:56;2.10;;;1.67;;
5345;SDS011;2695;49.444;11.054;2022-09-09T01:41:26;3.37;;;1.60;;
5345;SDS011;2695;49.444;11.054;2022-09-09T01:43:54;2.10;;;1.50;;
5345;SDS011;2695;49.444;11.054;2022-09-09T01:46:23;2.90;;;1.60;;
5345;SDS011;2695;49.444;11.054;2022-09-09T01:48:52;1.33;;;1.23;;
5345;SDS011;2695;49.444;11.054;2022-09-09T01:51:22;2.80;;;1.30;;
5345;SDS011;2695;49.444;11.054;2022-09-09T01:53:50;4.10;;;1.30;;
5345;SDS011;2695;49.444;11.054;2022-09-09T01:56:21;2.80;;;1.40;;
5345;SDS011;2695;49.444;11.054;2022-09-09T01:59:02;3.03;;;1.77;;
5345;SDS011;2695;49.444;11.054;2022-09-09T02:01:41;2.40;;;1.60;;
5345;SDS011;2695;49.444;11.054;2022-09-09T02:04:21;2.20;;;1.50;;
5345;SDS011;2695;49.444;11.054;2022-09-09T02:06:59;2.93;;;1.23;;
5345;SDS011;2695;49.444;11.054;2022-09-09T02:09:29;7.23;;;1.73;;
5345;SDS011;2695;49.444;11.054;2022-09-09T02:12:00;1.50;;;1.40;;
5345;SDS011;2695;49.444;11.054;2022-09-09T02:14:35;2.60;;;1.57;;
5345;SDS011;2695;49.444;11.054;2022-09-09T02:17:07;3.07;;;1.30;;
5345;SDS011;2695;49.444;11.054;2022-09-09T02:19:39;7.63;;;1.40;;
5345;SDS011;2695;49.444;11.054;2022-09-09T02:22:12;1.60;;;1.50;;
5345;SDS011;2695;49.444;11.054;2022-09-09T02:24:41;1.67;;;1.30;;
5345;SDS011;2695;49.444;11.054;2022-09-09T02:27:11;3.13;;;1.40;;
5345;SDS011;2695;49.444;11.054;2022-09-09T02:29:41;3.90;;;1.33;;
5345;SDS011;2695;49.444;11.054;2022-09-09T02:32:13;3.90;;;1.40;;
5345;SDS011;2695;49.444;11.054;2022-09-09T02:34:45;1.93;;;1.33;;
5345;SDS011;2695;49.444;11.054;2022-09-09T02:37:15;2.57;;;1.23;;
5345;SDS011;2695;49.444;11.054;2022-09-09T02:39:47;1.43;;;1.33;;
5345;SDS011;2695;49.444;11.054;2022-09-09T02:42:17;2.10;;;1.50;;
5345;SDS011;2695;49.444;11.054;2022-09-09T02:44:45;2.53;;;1.43;;
5345;SDS011;2695;49.444;11.054;2022-09-09T02:47:16;5.47;;;2.20;;
5345;SDS011;2695;49.444;11.054;2022-09-09T02:49:57;3.40;;;2.17;;
5345;SDS011;2695;49.444;11.054;2022-09-09T02:52:38;1.90;;;1.70;;
5345;SDS011;2695;49.444;11.054;2022-09-09T02:55:16;7.83;;;1.97;;
5345;SDS011;2695;49.444;11.054;2022-09-09T02:57:50;3.07;;;2.40;;
5345;SDS011;2695;49.444;11.054;2022-09-09T03:00:24;6.30;;;2.60;;
5345;SDS011;2695;49.444;11.054;2022-09-09T03:02:53;3.77;;;2.87;;
5345;SDS011;2695;49.444;11.054;2022-09-09T03:05:21;6.00;;;2.50;;
5345;SDS011;2695;49.444;11.054;2022-09-09T03:07:50;3.90;;;1.87;;
5345;SDS011;2695;49.444;11.054;2022-09-09T03:10:18;4.40;;;1.90;;
5345;SDS011;2695;49.444;11.054;2022-09-09T03:12:46;2.60;;;1.87;;
5345;SDS011;2695;49.444;11.054;2022-09-09T03:15:16;2.47;;;1.97;;
5345;SDS011;2695;49.444;11.054;2022-09-09T03:17:44;3.17;;;1.23;;
5345;SDS011;2695;49.444;11.054;2022-09-09T03:20:13;8.03;;;1.80;;
5345;SDS011;2695;49.444;11.054;2022-09-09T03:22:41;3.23;;;1.57;;
5345;SDS011;2695;49.444;11.054;2022-09-09T03:25:10;1.10;;;1.03;;
5345;SDS011;2695;49.444;11.054;2022-09-09T03:27:38;2.90;;;1.90;;
5345;SDS011;2695;49.444;11.054;2022-09-09T03:30:06;2.43;;;1.20;;
5345;SDS011;2695;49.444;11.054;2022-09-09T03:32:37;2.00;;;1.60;;
5345;SDS011;2695;49.444;11.054;2022-09-09T03:35:06;4.80;;;1.40;;
5345;SDS011;2695;49.444;11.054;2022-09-09T03:37:36;6.33;;;1.73;;
5345;SDS011;2695;49.444;11.054;2022-09-09T03:40:05;5.30;;;1.60;;
5345;SDS011;2695;49.444;11.054;2022-09-09T03:42:36;2.83;;;1.83;;
5345;SDS011;2695;49.444;11.054;2022-09-09T03:45:05;3.73;;;2.07;;
5345;SDS011;2695;49.444;11.054;2022-09-09T03:47:38;3.97;;;1.80;;
5345;SDS011;2695;49.444;11.054;2022-09-09T03:50:07;3.80;;;2.10;;
5345;SDS011;2695;49.444;11.054;2022-09-09T03:52:36;3.67;;;2.70;;
5345;SDS011;2695;49.444;11.054;2022-09-09T03:55:05;3.73;;;2.50;;
5345;SDS011;2695;49.444;11.054;2022-09-09T03:57:34;3.40;;;2.10;;
5345;SDS011;2695;49.444;11.054;2022-09-09T04:00:03;5.50;;;2.10;;
5345;SDS011;2695;49.444;11.054;2022-09-09T04:02:33;5.23;;;2.10;;
5345;SDS011;2695;49.444;11.054;2022-09-09T04:05:02;2.97;;;1.60;;
5345;SDS011;2695;49.444;11.054;2022-09-09T04:07:33;1.90;;;1.70;;
5345;SDS011;2695;49.444;11.054;2022-09-09T04:10:01;3.80;;;2.00;;
5345;SDS011;2695;49.444;11.054;2022-09-09T04:12:29;4.07;;;2.27;;
5345;SDS011;2695;49.444;11.054;2022-09-09T04:14:57;3.10;;;1.60;;
5345;SDS011;2695;49.444;11.054;2022-09-09T04:17:25;3.43;;;2.30;;
5345;SDS011;2695;49.444;11.054;2022-09-09T04:19:53;12.90;;;2.37;;
5345;SDS011;2695;49.444;11.054;2022-09-09T04:22:22;4.33;;;3.30;;
5345;SDS011;2695;49.444;11.054;2022-09-09T04:24:50;9.23;;;3.67;;
5345;SDS011;2695;49.444;11.054;2022-09-09T04:27:18;6.70;;;3.40;;
5345;SDS011;2695;49.444;11.054;2022-09-09T04:29:46;2.90;;;2.13;;
5345;SDS011;2695;49.444;11.054;2022-09-09T04:32:14;4.30;;;2.63;;
5345;SDS011;2695;49.444;11.054;2022-09-09T04:34:42;4.60;;;2.40;;
5345;SDS011;2695;49.444;11.054;2022-09-09T04:37:11;5.10;;;2.87;;
5345;SDS011;2695;49.444;11.054;2022-09-09T04:39:40;3.27;;;2.73;;
5345;SDS011;2695;49.444;11.054;2022-09-09T04:42:08;6.87;;;3.23;;
5345;SDS011;2695;49.444;11.054;2022-09-09T04:44:36;3.50;;;2.10;;
5345;SDS011;2695;49.444;11.054;2022-09-09T04:47:04;3.80;;;1.77;;
5345;SDS011;2695;49.444;11.054;2022-09-09T04:49:32;2.67;;;1.60;;
5345;SDS011;2695;49.444;11.054;2022-09-09T04:52:00;3.97;;;1.90;;
5345;SDS011;2695;49.444;11.054;2022-09-09T04:54:29;3.37;;;2.10;;
5345;SDS011;2695;49.444;11.054;2022-09-09T04:56:58;4.73;;;1.90;;
5345;SDS011;2695;49.444;11.054;2022-09-09T04:59:26;5.20;;;2.57;;
5345;SDS011;2695;49.444;11.054;2022-09-09T05:01:55;5.70;;;2.63;;
5345;SDS011;2695;49.444;11.054;2022-09-09T05:04:23;9.43;;;3.40;;
5345;SDS011;2695;49.444;11.054;2022-09-09T05:06:51;7.07;;;2.53;;
5345;SDS011;2695;49.444;11.054;2022-09-09T05:09:19;6.33;;;2.20;;
5345;SDS011;2695;49.444;11.054;2022-09-09T05:11:47;6.43;;;3.00;;
5345;SDS011;2695;49.444;11.054;2022-09-09T05:14:16;6.53;;;2.43;;
5345;SDS011;2695;49.444;11.054;2022-09-09T05:16:44;2.87;;;1.83;;
5345;SDS011;2695;49.444;11.054;2022-09-09T05:19:13;3.13;;;2.00;;
5345;SDS011;2695;49.444;11.054;2022-09-09T05:21:41;4.17;;;1.80;;
5345;SDS011;2695;49.444;11.054;2022-09-09T05:24:10;9.03;;;2.30;;
5345;SDS011;2695;49.444;11.054;2022-09-09T05:26:38;6.67;;;1.97;;
5345;SDS011;2695;49.444;11.054;2022-09-09T05:29:06;3.57;;;2.30;;
5345;SDS011;2695;49.444;11.054;2022-09-09T05:31:35;2.70;;;2.10;;
5345;SDS011;2695;49.444;11.054;2022-09-09T05:34:05;4.60;;;2.43;;
5345;SDS011;2695;49.444;11.054;2022-09-09T05:36:33;6.70;;;2.17;;
5345;SDS011;2695;49.444;11.054;2022-09-09T05:39:01;5.47;;;2.23;;
5345;SDS011;2695;49.444;11.054;2022-09-09T05:41:29;5.90;;;2.60;;
5345;SDS011;2695;49.444;11.054;2022-09-09T05:43:58;3.40;;;2.40;;
5345;SDS011;2695;49.444;11.054;2022-09-09T05:46:27;5.40;;;2.37;;
5345;SDS011;2695;49.444;11.054;2022-09-09T05:48:57;6.03;;;1.93;;
5345;SDS011;2695;49.444;11.054;2022-09-09T05:51:25;4.87;;;2.60;;
5345;SDS011;2695;49.444;11.054;2022-09-09T05:53:56;3.17;;;1.67;;
5345;SDS011;2695;49.444;11.054;2022-09-09T05:56:26;2.87;;;1.70;;
5345;SDS011;2695;49.444;11.054;2022-09-09T05:58:55;9.60;;;2.20;;
5345;SDS011;2695;49.444;11.054;2022-09-09T06:01:27;4.07;;;2.80;;
5345;SDS011;2695;49.444;11.054;2022-09-09T06:03:58;5.40;;;2.10;;
5345;SDS011;2695;49.444;11.054;2022-09-09T06:06:27;5.03;;;2.77;;
5345;SDS011;2695;49.444;11.054;2022-09-09T06:08:58;3.77;;;1.90;;
5345;SDS011;2695;49.444;11.054;2022-09-09T06:11:30;5.07;;;2.07;;
5345;SDS011;2695;49.444;11.054;2022-09-09T06:13:59;8.17;;;2.13;;
5345;SDS011;2695;49.444;11.054;2022-09-09T06:16:29;9.57;;;2.30;;
5345;SDS011;2695;49.444;11.054;2022-09-09T06:19:00;9.57;;;1.97;;
5345;SDS011;2695;49.444;11.054;2022-09-09T06:21:30;5.40;;;2.37;;
5345;SDS011;2695;49.444;11.054;2022-09-09T06:24:00;9.40;;;2.20;;
5345;SDS011;2695;49.444;11.054;2022-09-09T06:26:29;3.53;;;2.53;;
5345;SDS011;2695;49.444;11.054;2022-09-09T06:28:58;3.47;;;2.50;;
5345;SDS011;2695;49.444;11.054;2022-09-09T06:31:27;4.07;;;2.17;;
5345;SDS011;2695;49.444;11.054;2022-09-09T06:33:57;6.13;;;2.30;;
5345;SDS011;2695;49.444;11.054;2022-09-09T06:36:29;7.33;;;2.27;;
5345;SDS011;2695;49.444;11.054;2022-09-09T06:38:59;3.53;;;2.10;;
5345;SDS011;2695;49.444;11.054;2022-09-09T06:41:27;7.37;;;2.37;;
5345;SDS011;2695;49.444;11.054;2022-09-09T06:43:56;7.73;;;2.60;;
5345;SDS011;2695;49.444;11.054;2022-09-09T06:46:25;5.87;;;2.97;;
5345;SDS011;2695;49.444;11.054;2022-09-09T06:48:55;14.37;;;2.63;;
5345;SDS011;2695;49.444;11.054;2022-09-09T06:51:28;9.43;;;3.20;;
5345;SDS011;2695;49.444;11.054;2022-09-09T06:54:00;7.97;;;2.77;;
5345;SDS011;2695;49.444;11.054;2022-09-09T06:56:29;12.63;;;2.00;;
5345;SDS011;2695;49.444;11.054;2022-09-09T06:58:59;7.10;;;2.27;;
5345;SDS011;2695;49.444;11.054;2022-09-09T07:01:30;6.33;;;2.27;;
5345;SDS011;2695;49.444;11.054;2022-09-09T07:04:00;5.70;;;1.90;;
5345;SDS011;2695;49.444;11.054;2022-09-09T07:06:32;5.07;;;1.87;;
5345;SDS011;2695;49.444;11.054;2022-09-09T07:09:02;6.30;;;1.93;;
5345;SDS011;2695;49.444;11.054;2022-09-09T07:11:32;7.75;;;2.05;;
5345;SDS011;2695;49.444;11.054;2022-09-09T07:14:02;5.60;;;2.40;;
5345;SDS011;2695;49.444;11.054;2022-09-09T07:16:30;3.10;;;2.27;;
5345;SDS011;2695;49.444;11.054;2022-09-09T07:18:59;6.60;;;2.40;;
5345;SDS011;2695;49.444;11.054;2022-09-09T07:21:29;3.30;;;1.53;;
5345;SDS011;2695;49.444;11.054;2022-09-09T07:24:00;3.77;;;1.40;;
5345;SDS011;2695;49.444;11.054;2022-09-09T07:26:33;5.97;;;2.33;;
5345;SDS011;2695;49.444;11.054;2022-09-09T07:29:02;4.47;;;1.93;;
5345;SDS011;2695;49.444;11.054;2022-09-09T07:31:31;2.47;;;1.93;;
5345;SDS011;2695;49.444;11.054;2022-09-09T07:34:03;4.97;;;1.90;;
5345;SDS011;2695;49.444;11.054;2022-09-09T07:36:33;6.50;;;2.00;;
5345;SDS011;2695;49.444;11.054;2022-09-09T07:39:03;3.00;;;1.57;;
5345;SDS011;2695;49.444;11.054;2022-09-09T07:41:33;4.57;;;1.93;;
5345;SDS011;2695;49.444;11.054;2022-09-09T07:44:05;6.57;;;2.43;;
5345;SDS011;2695;49.444;11.054;2022-09-09T07:46:35;7.00;;;2.67;;
5345;SDS011;2695;49.444;11.054;2022-09-09T07:49:06;13.93;;;2.20;;
5345;SDS011;2695;49.444;11.054;2022-09-09T07:51:36;4.87;;;2.30;;
5345;SDS011;2695;49.444;11.054;2022-09-09T07:54:07;5.17;;;2.13;;
5345;SDS011;2695;49.444;11.054;2022-09-09T07:56:37;4.30;;;2.25;;
5345;SDS011;2695;49.444;11.054;2022-09-09T07:59:06;3.35;;;1.90;;
5345;SDS011;2695;49.444;11.054;2022-09-09T08:01:36;6.95;;;2.28;;
5345;SDS011;2695;49.444;11.054;2022-09-09T08:04:06;3.60;;;1.98;;
5345;SDS011;2695;49.444;11.054;2022-09-09T08:06:37;3.60;;;1.95;;
5345;SDS011;2695;49.444;11.054;2022-09-09T08:09:06;4.78;;;2.30;;
5345;SDS011;2695;49.444;11.054;2022-09-09T08:11:36;3.33;;;2.08;;
5345;SDS011;2695;49.444;11.054;2022-09-09T08:14:05;5.15;;;1.85;;
5345;SDS011;2695;49.444;11.054;2022-09-09T08:16:35;4.35;;;1.90;;
5345;SDS011;2695;49.444;11.054;2022-09-09T08:19:05;5.95;;;1.70;;
5345;SDS011;2695;49.444;11.054;2022-09-09T08:21:34;4.53;;;1.77;;
5345;SDS011;2695;49.444;11.054;2022-09-09T08:24:07;5.93;;;1.60;;
5345;SDS011;2695;49.444;11.054;2022-09-09T08:26:37;2.53;;;1.55;;
5345;SDS011;2695;49.444;11.054;2022-09-09T08:29:08;4.03;;;1.85;;
5345;SDS011;2695;49.444;11.054;2022-09-09T08:31:38;2.47;;;1.10;;
5345;SDS011;2695;49.444;11.054;2022-09-09T08:34:08;2.75;;;1.17;;
5345;SDS011;2695;49.444;11.054;2022-09-09T08:36:39;2.70;;;1.55;;
5345;SDS011;2695;49.444;11.054;2022-09-09T08:39:10;2.28;;;1.50;;
5345;SDS011;2695;49.444;11.054;2022-09-09T08:44:39;3.13;;;1.45;;
5345;SDS011;2695;49.444;11.054;2022-09-09T08:47:19;1.77;;;1.23;;
5345;SDS011;2695;49.444;11.054;2022-09-09T08:50:02;3.22;;;1.48;;
5345;SDS011;2695;49.444;11.054;2022-09-09T08:52:44;2.72;;;1.48;;
5345;SDS011;2695;49.444;11.054;2022-09-09T08:55:20;2.75;;;1.60;;
5345;SDS011;2695;49.444;11.054;2022-09-09T08:57:53;4.13;;;1.67;;
5345;SDS011;2695;49.444;11.054;2022-09-09T09:00:25;1.98;;;1.20;;
5345;SDS011;2695;49.444;11.054;2022-09-09T09:03:02;2.53;;;1.20;;
5345;SDS011;2695;49.444;11.054;2022-09-09T09:05:42;3.30;;;1.50;;
5345;SDS011;2695;49.444;11.054;2022-09-09T09:08:17;6.28;;;1.40;;
5345;SDS011;2695;49.444;11.054;2022-09-09T09:10:53;4.90;;;1.60;;
5345;SDS011;2695;49.444;11.054;2022-09-09T09:13:27;2.17;;;1.00;;
5345;SDS011;2695;49.444;11.054;2022-09-09T09:16:06;2.00;;;1.20;;
5345;SDS011;2695;49.444;11.054;2022-09-09T09:18:42;3.25;;;1.38;;
5345;SDS011;2695;49.444;11.054;2022-09-09T09:21:12;3.35;;;1.50;;
5345;SDS011;2695;49.444;11.054;2022-09-09T09:23:48;2.55;;;1.00;;
5345;SDS011;2695;49.444;11.054;2022-09-09T09:26:23;1.73;;;0.90;;
5345;SDS011;2695;49.444;11.054;2022-09-09T09:28:55;1.77;;;1.00;;
5345;SDS011;2695;49.444;11.054;2022-09-09T09:31:26;2.17;;;1.00;;
5345;SDS011;2695;49.444;11.054;2022-09-09T09:33:54;1.92;;;0.85;;
5345;SDS011;2695;49.444;11.054;2022-09-09T09:36:25;2.08;;;1.10;;
5345;SDS011;2695;49.444;11.054;2022-09-09T09:39:03;1.80;;;0.90;;
5345;SDS011;2695;49.444;11.054;2022-09-09T09:41:52;1.65;;;0.85;;
5345;SDS011;2695;49.444;11.054;2022-09-09T09:44:24;5.20;;;1.30;;
5345;SDS011;2695;49.444;11.054;2022-09-09T09:47:05;3.15;;;1.25;;
5345;SDS011;2695;49.444;11.054;2022-09-09T09:49:33;0.90;;;0.80;;
5345;SDS011;2695;49.444;11.054;2022-09-09T09:52:02;2.33;;;1.05;;
5345;SDS011;2695;49.444;11.054;2022-09-09T09:54:34;1.65;;;0.75;;
5345;SDS011;2695;49.444;11.054;2022-09-09T09:57:09;1.95;;;0.73;;
5345;SDS011;2695;49.444;11.054;2022-09-09T09:59:39;1.88;;;0.90;;
5345;SDS011;2695;49.444;11.054;2022-09-09T10:02:14;2.25;;;1.10;;
5345;SDS011;2695;49.444;11.054;2022-09-09T10:04:44;2.80;;;1.65;;
5345;SDS011;2695;49.444;11.054;2022-09-09T10:07:17;1.35;;;0.90;;
5345;SDS011;2695;49.444;11.054;2022-09-09T10:09:50;2.65;;;0.85;;
5345;SDS011;2695;49.444;11.054;2022-09-09T10:12:23;2.72;;;1.20;;
5345;SDS011;2695;49.444;11.054;2022-09-09T10:15:07;2.55;;;1.17;;
5345;SDS011;2695;49.444;11.054;2022-09-09T10:17:54;4.28;;;1.17;;
5345;SDS011;2695;49.444;11.054;2022-09-09T10:20:29;3.00;;;0.90;;
5345;SDS011;2695;49.444;11.054;2022-09-09T10:23:06;1.10;;;1.00;;
5345;SDS011;2695;49.444;11.054;2022-09-09T10:25:49;2.75;;;1.40;;
5345;SDS011;2695;49.444;11.054;2022-09-09T10:28:30;5.80;;;1.52;;
5345;SDS011;2695;49.444;11.054;2022-09-09T10:31:14;1.90;;;1.00;;
5345;SDS011;2695;49.444;11.054;2022-09-09T10:33:50;3.00;;;1.30;;
5345;SDS011;2695;49.444;11.054;2022-09-09T10:36:23;1.50;;;1.00;;
5345;SDS011;2695;49.444;11.054;2022-09-09T10:38:52;5.50;;;1.35;;
5345;SDS011;2695;49.444;11.054;2022-09-09T10:41:31;2.95;;;1.33;;
5345;SDS011;2695;49.444;11.054;2022-09-09T10:47:10;2.55;;;0.93;;
5345;SDS011;2695;49.444;11.054;2022-09-09T10:50:03;3.25;;;1.10;;
5345;SDS011;2695;49.444;11.054;2022-09-09T10:52:43;2.50;;;1.40;;
5345;SDS011;2695;49.444;11.054;2022-09-09T10:55:19;1.60;;;0.93;;
5345;SDS011;2695;49.444;11.054;2022-09-09T10:57:57;2.83;;;1.35;;
5345;SDS011;2695;49.444;11.054;2022-09-09T11:00:34;3.75;;;1.30;;
5345;SDS011;2695;49.444;11.054;2022-09-09T11:03:06;4.90;;;1.00;;
5345;SDS011;2695;49.444;11.054;2022-09-09T11:05:42;2.80;;;1.42;;
5345;SDS011;2695;49.444;11.054;2022-09-09T11:08:14;4.38;;;1.92;;
5345;SDS011;2695;49.444;11.054;2022-09-09T11:10:48;5.80;;;1.60;;
5345;SDS011;2695;49.444;11.054;2022-09-09T11:13:23;3.05;;;1.83;;
5345;SDS011;2695;49.444;11.054;2022-09-09T11:15:59;3.40;;;1.48;;
5345;SDS011;2695;49.444;11.054;2022-09-09T11:18:31;4.63;;;1.38;;
5345;SDS011;2695;49.444;11.054;2022-09-09T11:21:08;2.67;;;1.40;;
5345;SDS011;2695;49.444;11.054;2022-09-09T11:23:42;2.80;;;1.17;;
5345;SDS011;2695;49.444;11.054;2022-09-09T11:26:15;3.05;;;1.40;;
5345;SDS011;2695;49.444;11.054;2022-09-09T11:28:54;3.17;;;1.42;;
5345;SDS011;2695;49.444;11.054;2022-09-09T11:31:42;6.50;;;1.35;;
5345;SDS011;2695;49.444;11.054;2022-09-09T11:34:17;3.33;;;1.20;;
5345;SDS011;2695;49.444;11.054;2022-09-09T11:42:43;1.60;;;0.98;;
5345;SDS011;2695;49.444;11.054;2022-09-09T11:45:22;1.90;;;0.90;;
5345;SDS011;2695;49.444;11.054;2022-09-09T11:47:53;6.38;;;1.38;;
5345;SDS011;2695;49.444;11.054;2022-09-09T11:50:30;4.35;;;1.73;;
5345;SDS011;2695;49.444;11.054;2022-09-09T11:53:19;1.83;;;1.00;;
5345;SDS011;2695;49.444;11.054;2022-09-09T11:56:02;1.60;;;0.80;;
5345;SDS011;2695;49.444;11.054;2022-09-09T11:58:35;5.20;;;1.40;;
5345;SDS011;2695;49.444;11.054;2022-09-09T12:01:15;3.28;;;0.98;;
5345;SDS011;2695;49.444;11.054;2022-09-09T12:03:55;1.93;;;1.00;;
5345;SDS011;2695;49.444;11.054;2022-09-09T12:06:33;1.95;;;1.00;;
5345;SDS011;2695;49.444;11.054;2022-09-09T12:09:19;4.25;;;1.20;;
5345;SDS011;2695;49.444;11.054;2022-09-09T12:12:04;6.53;;;1.57;;
5345;SDS011;2695;49.444;11.054;2022-09-09T12:15:00;9.10;;;1.50;;
5345;SDS011;2695;49.444;11.054;2022-09-09T12:17:48;3.70;;;1.10;;
5345;SDS011;2695;49.444;11.054;2022-09-09T12:20:18;1.67;;;0.90;;
5345;SDS011;2695;49.444;11.054;2022-09-09T12:22:54;2.70;;;1.77;;
5345;SDS011;2695;49.444;11.054;2022-09-09T12:25:58;2.67;;;1.07;;
5345;SDS011;2695;49.444;11.054;2022-09-09T12:28:49;2.00;;;0.80;;
5345;SDS011;2695;49.444;11.054;2022-09-09T12:31:24;1.87;;;1.03;;
5345;SDS011;2695;49.444;11.054;2022-09-09T12:34:04;3.53;;;1.07;;
5345;SDS011;2695;49.444;11.054;2022-09-09T12:36:41;3.83;;;1.20;;
5345;SDS011;2695;49.444;11.054;2022-09-09T12:39:20;1.83;;;1.00;;
5345;SDS011;2695;49.444;11.054;2022-09-09T12:41:52;1.10;;;0.90;;
5345;SDS011;2695;49.444;11.054;2022-09-09T12:44:23;3.43;;;1.03;;
5345;SDS011;2695;49.444;11.054;2022-09-09T12:46:52;2.73;;;1.00;;
5345;SDS011;2695;49.444;11.054;2022-09-09T12:49:26;5.40;;;1.10;;
5345;SDS011;2695;49.444;11.054;2022-09-09T12:51:57;1.87;;;1.17;;
5345;SDS011;2695;49.444;11.054;2022-09-09T12:54:26;4.93;;;1.27;;
5345;SDS011;2695;49.444;11.054;2022-09-09T12:56:54;1.13;;;0.73;;
5345;SDS011;2695;49.444;11.054;2022-09-09T12:59:23;5.10;;;1.40;;
5345;SDS011;2695;49.444;11.054;2022-09-09T13:01:55;1.43;;;0.73;;
5345;SDS011;2695;49.444;11.054;2022-09-09T13:04:26;4.73;;;1.03;;
5345;SDS011;2695;49.444;11.054;2022-09-09T13:07:04;2.80;;;1.23;;
5345;SDS011;2695;49.444;11.054;2022-09-09T13:09:36;2.40;;;1.40;;
5345;SDS011;2695;49.444;11.054;2022-09-09T13:12:11;3.20;;;1.37;;
5345;SDS011;2695;49.444;11.054;2022-09-09T13:14:43;2.97;;;1.17;;
5345;SDS011;2695;49.444;11.054;2022-09-09T13:17:17;2.60;;;1.07;;
5345;SDS011;2695;49.444;11.054;2022-09-09T13:19:49;3.43;;;1.10;;
5345;SDS011;2695;49.444;11.054;2022-09-09T13:22:27;1.87;;;1.00;;
5345;SDS011;2695;49.444;11.054;2022-09-09T13:25:00;1.20;;;0.70;;
5345;SDS011;2695;49.444;11.054;2022-09-09T13:27:31;2.83;;;0.87;;
5345;SDS011;2695;49.444;11.054;2022-09-09T13:30:01;1.33;;;0.70;;
5345;SDS011;2695;49.444;11.054;2022-09-09T13:32:44;2.93;;;1.20;;
5345;SDS011;2695;49.444;11.054;2022-09-09T13:35:23;1.53;;;0.90;;
5345;SDS011;2695;49.444;11.054;2022-09-09T13:37:51;1.37;;;0.97;;
5345;SDS011;2695;49.444;11.054;2022-09-09T13:40:20;2.50;;;1.00;;
5345;SDS011;2695;49.444;11.054;2022-09-09T13:42:51;1.60;;;1.17;;
5345;SDS011;2695;49.444;11.054;2022-09-09T13:45:23;2.97;;;1.10;;
5345;SDS011;2695;49.444;11.054;2022-09-09T13:47:53;2.77;;;1.20;;
5345;SDS011;2695;49.444;11.054;2022-09-09T13:50:24;3.30;;;1.20;;
5345;SDS011;2695;49.444;11.054;2022-09-09T13:52:54;2.93;;;0.97;;
5345;SDS011;2695;49.444;11.054;2022-09-09T13:55:24;4.37;;;1.67;;
5345;SDS011;2695;49.444;11.054;2022-09-09T13:57:54;2.90;;;1.13;;
5345;SDS011;2695;49.444;11.054;2022-09-09T14:00:23;1.70;;;1.00;;
5345;SDS011;2695;49.444;11.054;2022-09-09T14:02:52;8.10;;;1.20;;
5345;SDS011;2695;49.444;11.054;2022-09-09T14:05:21;2.97;;;1.60;;
5345;SDS011;2695;49.444;11.054;2022-09-09T14:07:51;2.70;;;1.13;;
5345;SDS011;2695;49.444;11.054;2022-09-09T14:10:19;1.53;;;1.17;;
5345;SDS011;2695;49.444;11.054;2022-09-09T14:12:48;1.53;;;0.87;;
5345;SDS011;2695;49.444;11.054;2022-09-09T14:15:16;1.17;;;1.03;;
5345;SDS011;2695;49.444;11.054;2022-09-09T14:17:45;7.50;;;1.50;;
5345;SDS011;2695;49.444;11.054;2022-09-09T14:20:14;2.30;;;1.10;;
5345;SDS011;2695;49.444;11.054;2022-09-09T14:22:45;2.27;;;1.30;;
5345;SDS011;2695;49.444;11.054;2022-09-09T14:25:13;1.90;;;0.90;;
5345;SDS011;2695;49.444;11.054;2022-09-09T14:27:41;2.67;;;1.00;;
5345;SDS011;2695;49.444;11.054;2022-09-09T14:30:13;3.40;;;1.20;;
5345;SDS011;2695;49.444;11.054;2022-09-09T14:32:46;3.40;;;1.17;;
5345;SDS011;2695;49.444;11.054;2022-09-09T14:35:17;3.63;;;1.10;;
5345;SDS011;2695;49.444;11.054;2022-09-09T14:37:46;4.43;;;1.10;;
5345;SDS011;2695;49.444;11.054;2022-09-09T14:40:15;5.60;;;1.67;;
5345;SDS011;2695;49.444;11.054;2022-09-09T14:42:45;4.10;;;1.63;;
5345;SDS011;2695;49.444;11.054;2022-09-09T14:45:13;2.40;;;1.40;;
5345;SDS011;2695;49.444;11.054;2022-09-09T14:47:42;2.60;;;1.17;;
5345;SDS011;2695;49.444;11.054;2022-09-09T14:50:10;1.83;;;0.90;;
5345;SDS011;2695;49.444;11.054;2022-09-09T14:52:40;2.97;;;1.40;;
5345;SDS011;2695;49.444;11.054;2022-09-09T14:55:09;3.53;;;1.13;;
5345;SDS011;2695;49.444;11.054;2022-09-09T14:57:39;1.87;;;0.80;;
5345;SDS011;2695;49.444;11.054;2022-09-09T15:00:08;3.57;;;1.10;;
5345;SDS011;2695;49.444;11.054;2022-09-09T15:02:37;2.43;;;1.13;;
5345;SDS011;2695;49.444;11.054;2022-09-09T15:05:05;5.17;;;1.10;;
5345;SDS011;2695;49.444;11.054;2022-09-09T15:07:34;2.80;;;1.47;;
5345;SDS011;2695;49.444;11.054;2022-09-09T15:10:03;3.40;;;1.57;;
5345;SDS011;2695;49.444;11.054;2022-09-09T15:12:34;2.97;;;1.10;;
5345;SDS011;2695;49.444;11.054;2022-09-09T15:15:02;1.93;;;1.10;;
5345;SDS011;2695;49.444;11.054;2022-09-09T15:17:32;4.17;;;1.30;;
5345;SDS011;2695;49.444;11.054;2022-09-09T15:20:00;2.30;;;0.90;;
5345;SDS011;2695;49.444;11.054;2022-09-09T15:22:29;4.00;;;1.33;;
5345;SDS011;2695;49.444;11.054;2022-09-09T15:24:57;1.87;;;1.10;;
5345;SDS011;2695;49.444;11.054;2022-09-09T15:27:27;2.80;;;1.10;;
5345;SDS011;2695;49.444;11.054;2022-09-09T15:29:58;3.30;;;1.23;;
5345;SDS011;2695;49.444;11.054;2022-09-09T15:32:27;2.50;;;1.10;;
5345;SDS011;2695;49.444;11.054;2022-09-09T15:34:55;3.33;;;1.53;;
5345;SDS011;2695;49.444;11.054;2022-09-09T15:37:23;3.40;;;1.33;;
5345;SDS011;2695;49.444;11.054;2022-09-09T15:39:51;3.03;;;1.33;;
5345;SDS011;2695;49.444;11.054;2022-09-09T15:42:20;4.50;;;1.57;;